Estación de Purranque
Ultimos registro cada 15 minutos 83
| N° | Estación | Fecha / Hora | Temperatura | Humedad | Lluvia | Velocidad | Dirección | Radiación | Presion |
| 83 | Purranque | 02-09-2026 20:30 | 6,9 | 88,1 | 0 | 2 | 240 | 0,6 | 1007,8 |
| 82 | Purranque | 02-09-2026 20:15 | 7 | 88,2 | 0 | 2 | 253 | 0,6 | 1007,5 |
| 81 | Purranque | 02-09-2026 20:00 | 7,2 | 92 | 0 | 1,3 | 246 | 0,6 | 1007,3 |
| 80 | Purranque | 02-09-2026 19:45 | 7,5 | 91,3 | 0 | 2,3 | 232 | 0,6 | 1007,1 |
| 79 | Purranque | 02-09-2026 19:30 | 8 | 92,8 | 0 | 2 | 230 | 0,6 | 1006,9 |
| 78 | Purranque | 02-09-2026 19:15 | 8,4 | 92,1 | 0 | 2,3 | 229 | 0,6 | 1006,6 |
| 77 | Purranque | 02-09-2026 19:00 | 8,4 | 94,6 | 0 | 1,7 | 219 | 0,6 | 1006,2 |
| 76 | Purranque | 02-09-2026 18:45 | 8,7 | 93,8 | 0 | 2,3 | 212 | 0,6 | 1005,9 |
| 75 | Purranque | 02-09-2026 18:30 | 9 | 95,1 | 0 | 2,3 | 206 | 3,1 | 1005,6 |
| 74 | Purranque | 02-09-2026 18:15 | 9,3 | 96,3 | 0,4 | 2,3 | 211 | 15,6 | 1005,4 |
| 73 | Purranque | 02-09-2026 18:00 | 9,6 | 95,2 | 0,4 | 2,7 | 223 | 45,6 | 1005,2 |
| 72 | Purranque | 02-09-2026 17:45 | 9,8 | 93,9 | 0,4 | 3 | 219 | 88,1 | 1004,9 |
| 71 | Purranque | 02-09-2026 17:30 | 9,9 | 90 | 0 | 2,7 | 199 | 90,6 | 1004,6 |
| 70 | Purranque | 02-09-2026 17:15 | 9,9 | 89,3 | 0 | 1,7 | 201 | 98,1 | 1004,4 |
| 69 | Purranque | 02-09-2026 17:00 | 9,5 | 96,8 | 0 | 0,3 | 1 | 80,6 | 1004,3 |
| 68 | Purranque | 02-09-2026 16:45 | 9,3 | 96,6 | 0 | 0,7 | 34 | 60,6 | 1003,9 |
| 67 | Purranque | 02-09-2026 16:30 | 9,1 | 95,3 | 0 | 1,3 | 13 | 53,1 | 1003,9 |
| 66 | Purranque | 02-09-2026 16:15 | 9,4 | 95,3 | 0 | 0,7 | 183 | 58,1 | 1003,8 |
| 65 | Purranque | 02-09-2026 16:00 | 8,8 | 94,9 | 4,8 | 2 | 222 | 46,9 | 1003,5 |
| 64 | Purranque | 02-09-2026 15:45 | 12,3 | 82,7 | 0 | 0,7 | 234 | 74,4 | 1003,7 |
| 63 | Purranque | 02-09-2026 15:30 | 14 | 77,2 | 0 | 1 | 358 | 661,9 | 1003,2 |
| 62 | Purranque | 02-09-2026 15:15 | 13,1 | 78 | 0 | 1 | 337 | 545,6 | 1003,2 |
| 61 | Purranque | 02-09-2026 15:00 | 11,9 | 83,7 | 0 | 1,3 | 327 | 241,9 | 1003,2 |
| 60 | Purranque | 02-09-2026 14:45 | 12 | 82,3 | 0 | 2 | 337 | 485,6 | 1003,1 |
| 59 | Purranque | 02-09-2026 14:30 | 12,7 | 83,6 | 0 | 2 | 330 | 578,1 | 1003 |
| 58 | Purranque | 02-09-2026 14:15 | 11,5 | 85,1 | 0 | 2,3 | 333 | 465,6 | 1003,1 |
| 57 | Purranque | 02-09-2026 14:00 | 12,9 | 81,6 | 0 | 1,3 | 329 | 779,4 | 1003,2 |
| 56 | Purranque | 02-09-2026 13:45 | 12,3 | 84 | 0 | 1,7 | 309 | 359,4 | 1003,4 |
| 55 | Purranque | 02-09-2026 13:30 | 11,2 | 87,7 | 0 | 1,3 | 321 | 540,6 | 1003,5 |
| 54 | Purranque | 02-09-2026 13:15 | 11 | 92,1 | 0 | 1,3 | 331 | 833,1 | 1003,3 |
| 53 | Purranque | 02-09-2026 13:00 | 9 | 94,4 | 0,4 | 1,3 | 348 | 286,9 | 1003,4 |
| 52 | Purranque | 02-09-2026 12:45 | 8,4 | 96,1 | 0,8 | 1,7 | 340 | 65,6 | 1003,6 |
| 51 | Purranque | 02-09-2026 12:30 | 8,6 | 96,4 | 0,6 | 1,7 | 344 | 25,6 | 1003,7 |
| 50 | Purranque | 02-09-2026 12:15 | 8,7 | 95,7 | 0,8 | 1,3 | 350 | 21,9 | 1003,6 |
| 49 | Purranque | 02-09-2026 12:00 | 9,4 | 96,7 | 0,6 | 1 | 336 | 21,9 | 1003,5 |
| 48 | Purranque | 02-09-2026 11:45 | 9,5 | 96,6 | 0,6 | 0,7 | 338 | 46,9 | 1003,3 |
| 47 | Purranque | 02-09-2026 11:30 | 9,6 | 95,6 | 1 | 1 | 326 | 66,9 | 1003,2 |
| 46 | Purranque | 02-09-2026 11:15 | 9,6 | 93,3 | 0,4 | 1,3 | 336 | 44,4 | 1003,1 |
| 45 | Purranque | 02-09-2026 11:00 | 10 | 92,3 | 0,2 | 1,7 | 337 | 86,9 | 1003,1 |
| 44 | Purranque | 02-09-2026 10:45 | 10,5 | 90,7 | 0 | 2 | 344 | 173,1 | 1003 |
| 43 | Purranque | 02-09-2026 10:30 | 10,7 | 88,7 | 0 | 3 | 0 | 176,9 | 1003 |
| 42 | Purranque | 02-09-2026 10:15 | 10,9 | 90,2 | 0 | 2,7 | 7 | 331,9 | 1003 |
| 41 | Purranque | 02-09-2026 10:00 | 10,6 | 90,9 | 0 | 2 | 14 | 589,4 | 1003 |
| 40 | Purranque | 02-09-2026 09:45 | 9,7 | 92,8 | 0 | 2 | 22 | 438,1 | 1002,8 |
| 39 | Purranque | 02-09-2026 09:30 | 9 | 95,7 | 0,2 | 1,7 | 17 | 126,9 | 1002,8 |
| 38 | Purranque | 02-09-2026 09:15 | 8,7 | 95,7 | 0 | 2 | 13 | 84,4 | 1002,7 |
| 37 | Purranque | 02-09-2026 09:00 | 8,8 | 94,4 | 0 | 2,3 | 11 | 153,1 | 1002,6 |
| 36 | Purranque | 02-09-2026 08:45 | 8,8 | 93,2 | 0 | 2,3 | 11 | 106,9 | 1002,4 |
| 35 | Purranque | 02-09-2026 08:30 | 8,3 | 93,4 | 0 | 2 | 15 | 73,1 | 1002,4 |
| 34 | Purranque | 02-09-2026 08:15 | 8,3 | 93,5 | 0 | 2 | 17 | 61,9 | 1002,3 |
| 33 | Purranque | 02-09-2026 08:00 | 8,3 | 93,6 | 0 | 2,3 | 11 | 158,1 | 1002,2 |
| 32 | Purranque | 02-09-2026 07:45 | 7,9 | 94,9 | 0 | 2 | 10 | 83,1 | 1001,9 |
| 31 | Purranque | 02-09-2026 07:30 | 7,5 | 96,1 | 0 | 1,7 | 13 | 8,1 | 1001,7 |
| 30 | Purranque | 02-09-2026 07:15 | 7,5 | 97,5 | 0 | 1,7 | 15 | 1,9 | 1001,8 |
| 29 | Purranque | 02-09-2026 07:00 | 6,8 | 100 | 0 | 1,3 | 25 | 0,6 | 1001,7 |
| 28 | Purranque | 02-09-2026 06:45 | 6,4 | 100 | 0 | 1 | 65 | 0,6 | 1001,5 |
| 27 | Purranque | 02-09-2026 06:30 | 5,3 | 100 | 0 | 0,3 | 79 | 0,6 | 1001,4 |
| 26 | Purranque | 02-09-2026 06:15 | 4,5 | 100 | 0 | 0,3 | 93 | 0,6 | 1001,2 |
| 25 | Purranque | 02-09-2026 06:00 | 4,4 | 100 | 0 | 0,7 | 122 | 0,6 | 1001,1 |
| 24 | Purranque | 02-09-2026 05:45 | 5,3 | 100 | 0 | 0,3 | 72 | 0,6 | 1001,1 |
| 23 | Purranque | 02-09-2026 05:30 | 5,3 | 100 | 0 | 0,7 | 83 | 0,6 | 1001 |
| 22 | Purranque | 02-09-2026 05:15 | 5,9 | 100 | 0 | 0,3 | 98 | 0,6 | 1000,7 |
| 21 | Purranque | 02-09-2026 05:00 | 5,9 | 100 | 0 | 0 | 1 | 0,6 | 1000,6 |
| 20 | Purranque | 02-09-2026 04:45 | 6,3 | 99,7 | 0,2 | 0 | 0 | 0,6 | 1000,8 |
| 19 | Purranque | 02-09-2026 04:30 | 6,8 | 99,1 | 0 | 0,3 | 11 | 0,6 | 1000,6 |
| 18 | Purranque | 02-09-2026 04:15 | 7,7 | 98,9 | 0 | 0,7 | 6 | 0,6 | 1000,5 |
| 17 | Purranque | 02-09-2026 04:00 | 7,7 | 97,8 | 0 | 1 | 8 | 0,6 | 1000,6 |
| 16 | Purranque | 02-09-2026 03:45 | 8,2 | 97,8 | 0 | 1,3 | 0 | 0,6 | 1000,5 |
| 15 | Purranque | 02-09-2026 03:30 | 8,4 | 97,1 | 0 | 2 | 6 | 0,6 | 1000,6 |
| 14 | Purranque | 02-09-2026 03:15 | 8,8 | 97,2 | 0 | 2 | 13 | 0,6 | 1000,6 |
| 13 | Purranque | 02-09-2026 03:00 | 8,9 | 97,2 | 0 | 2,7 | 13 | 0,6 | 1000,6 |
| 12 | Purranque | 02-09-2026 02:45 | 9 | 96,7 | 0 | 2,7 | 11 | 0,6 | 1000,6 |
| 11 | Purranque | 02-09-2026 02:30 | 9 | 97,1 | 0 | 2,3 | 1 | 0,6 | 1000,5 |
| 10 | Purranque | 02-09-2026 02:15 | 9,2 | 96,9 | 0 | 2,3 | 15 | 0,6 | 1000,7 |
| 9 | Purranque | 02-09-2026 02:00 | 9,1 | 97,2 | 0 | 2,3 | 28 | 0,6 | 1000,7 |
| 8 | Purranque | 02-09-2026 01:45 | 9,1 | 97,1 | 0 | 2,3 | 22 | 0,6 | 1000,7 |
| 7 | Purranque | 02-09-2026 01:30 | 9 | 97,2 | 0 | 2,3 | 18 | 0,6 | 1000,6 |
| 6 | Purranque | 02-09-2026 01:15 | 8,9 | 97,3 | 0 | 2,7 | 20 | 0,6 | 1000,7 |
| 5 | Purranque | 02-09-2026 01:00 | 8,9 | 97,2 | 0 | 3 | 18 | 0,6 | 1000,8 |
| 4 | Purranque | 02-09-2026 00:45 | 8,9 | 97,5 | 0 | 2,7 | 21 | 0,6 | 1000,9 |
| 3 | Purranque | 02-09-2026 00:30 | 8,7 | 97,7 | 0 | 2,3 | 20 | 0,6 | 1001,1 |
| 2 | Purranque | 02-09-2026 00:15 | 8,7 | 97,7 | 0 | 2,7 | 22 | 0,6 | 1001,2 |
| 1 | Purranque | 02-09-2026 00:00 | 8,7 | 97,9 | 0,2 | 2,7 | 27 | 0,6 | 1001,3 |